sensor_id;sensor_type;location;lat;lon;timestamp;pressure;altitude;pressure_sealevel;temperature;humidity
50852;BME280;43953;45.508;-122.806;2023-01-08T00:00:15;100046.16;;;12.78;65.06
50852;BME280;43953;45.508;-122.806;2023-01-08T00:00:46;100051.34;;;12.79;65.06
50852;BME280;43953;45.508;-122.806;2023-01-08T00:01:18;100048.66;;;12.79;65.05
50852;BME280;43953;45.508;-122.806;2023-01-08T00:01:50;100049.72;;;12.78;64.80
50852;BME280;43953;45.508;-122.806;2023-01-08T00:02:21;100045.13;;;12.79;65.13
50852;BME280;43953;45.508;-122.806;2023-01-08T00:02:53;100051.34;;;12.79;65.26
50852;BME280;43953;45.508;-122.806;2023-01-08T00:03:25;100055.13;;;12.78;64.75
50852;BME280;43953;45.508;-122.806;2023-01-08T00:03:57;100056.75;;;12.79;65.30
50852;BME280;43953;45.508;-122.806;2023-01-08T00:04:28;100054.88;;;12.80;64.92
50852;BME280;43953;45.508;-122.806;2023-01-08T00:05:00;100055.69;;;12.80;64.99
50852;BME280;43953;45.508;-122.806;2023-01-08T00:05:32;100055.94;;;12.79;64.87
50852;BME280;43953;45.508;-122.806;2023-01-08T00:06:06;100058.38;;;12.80;64.94
50852;BME280;43953;45.508;-122.806;2023-01-08T00:06:39;100052.16;;;12.80;64.72
50852;BME280;43953;45.508;-122.806;2023-01-08T00:07:10;100054.06;;;12.79;64.69
50852;BME280;43953;45.508;-122.806;2023-01-08T00:07:42;100052.97;;;12.80;64.64
50852;BME280;43953;45.508;-122.806;2023-01-08T00:08:14;100053.78;;;12.81;64.53
50852;BME280;43953;45.508;-122.806;2023-01-08T00:08:46;100051.34;;;12.79;64.85
50852;BME280;43953;45.508;-122.806;2023-01-08T00:09:17;100052.16;;;12.80;64.79
50852;BME280;43953;45.508;-122.806;2023-01-08T00:09:49;100051.34;;;12.79;64.99
50852;BME280;43953;45.508;-122.806;2023-01-08T00:10:22;100051.34;;;12.79;64.86
50852;BME280;43953;45.508;-122.806;2023-01-08T00:10:54;100045.13;;;12.79;64.46
50852;BME280;43953;45.508;-122.806;2023-01-08T00:11:28;100048.38;;;12.81;64.92
50852;BME280;43953;45.508;-122.806;2023-01-08T00:12:00;100050.06;;;12.82;64.66
50852;BME280;43953;45.508;-122.806;2023-01-08T00:12:32;100045.69;;;12.81;64.69
50852;BME280;43953;45.508;-122.806;2023-01-08T00:13:05;100048.38;;;12.81;64.72
50852;BME280;43953;45.508;-122.806;2023-01-08T00:13:37;100047.34;;;12.82;64.54
50852;BME280;43953;45.508;-122.806;2023-01-08T00:14:10;100052.75;;;12.82;64.50
50852;BME280;43953;45.508;-122.806;2023-01-08T00:14:41;100051.69;;;12.83;64.81
50852;BME280;43953;45.508;-122.806;2023-01-08T00:15:13;100053.56;;;12.82;64.78
50852;BME280;43953;45.508;-122.806;2023-01-08T00:15:45;100046.28;;;12.83;64.47
50852;BME280;43953;45.508;-122.806;2023-01-08T00:16:18;100049.25;;;12.81;64.54
50852;BME280;43953;45.508;-122.806;2023-01-08T00:16:50;100046.28;;;12.83;64.73
50852;BME280;43953;45.508;-122.806;2023-01-08T00:17:22;100043.56;;;12.83;64.52
50852;BME280;43953;45.508;-122.806;2023-01-08T00:17:53;100043.84;;;12.81;64.57
50852;BME280;43953;45.508;-122.806;2023-01-08T00:18:25;100040.75;;;12.78;64.86
50852;BME280;43953;45.508;-122.806;2023-01-08T00:18:57;100038.31;;;12.76;64.91
50852;BME280;43953;45.508;-122.806;2023-01-08T00:19:29;100043.84;;;12.81;64.57
50852;BME280;43953;45.508;-122.806;2023-01-08T00:20:01;100046.28;;;12.83;64.91
50852;BME280;43953;45.508;-122.806;2023-01-08T00:20:33;100046.28;;;12.83;64.92
50852;BME280;43953;45.508;-122.806;2023-01-08T00:21:05;100041.13;;;12.81;64.79
50852;BME280;43953;45.508;-122.806;2023-01-08T00:21:37;100036.53;;;12.82;64.49
50852;BME280;43953;45.508;-122.806;2023-01-08T00:22:09;100042.28;;;12.85;64.73
50852;BME280;43953;45.508;-122.806;2023-01-08T00:22:40;100044.16;;;12.85;64.90
50852;BME280;43953;45.508;-122.806;2023-01-08T00:23:13;100042.53;;;12.84;64.68
50852;BME280;43953;45.508;-122.806;2023-01-08T00:23:46;100043.34;;;12.84;64.79
50852;BME280;43953;45.508;-122.806;2023-01-08T00:24:17;100042.53;;;12.84;64.86
50852;BME280;43953;45.508;-122.806;2023-01-08T00:24:50;100045.78;;;12.86;64.94
50852;BME280;43953;45.508;-122.806;2023-01-08T00:25:22;100038.75;;;12.85;64.80
50852;BME280;43953;45.508;-122.806;2023-01-08T00:25:54;100040.41;;;12.86;64.63
50852;BME280;43953;45.508;-122.806;2023-01-08T00:26:25;100035.81;;;12.86;64.75
50852;BME280;43953;45.508;-122.806;2023-01-08T00:26:57;100030.06;;;12.83;64.64
50852;BME280;43953;45.508;-122.806;2023-01-08T00:27:29;100030.88;;;12.83;64.55
50852;BME280;43953;45.508;-122.806;2023-01-08T00:28:01;100031.47;;;12.85;64.36
50852;BME280;43953;45.508;-122.806;2023-01-08T00:28:33;100032.28;;;12.86;64.31
50852;BME280;43953;45.508;-122.806;2023-01-08T00:29:05;100025.47;;;12.83;64.72
50852;BME280;43953;45.508;-122.806;2023-01-08T00:29:36;100026.31;;;12.84;64.78
50852;BME280;43953;45.508;-122.806;2023-01-08T00:30:08;100021.75;;;12.84;64.48
50852;BME280;43953;45.508;-122.806;2023-01-08T00:30:40;100027.16;;;12.84;64.48
50852;BME280;43953;45.508;-122.806;2023-01-08T00:31:12;100027.97;;;12.85;64.26
50852;BME280;43953;45.508;-122.806;2023-01-08T00:31:44;100025.47;;;12.83;64.51
50852;BME280;43953;45.508;-122.806;2023-01-08T00:32:16;100018.22;;;12.84;64.47
50852;BME280;43953;45.508;-122.806;2023-01-08T00:32:48;100018.44;;;12.82;64.16
50852;BME280;43953;45.508;-122.806;2023-01-08T00:33:19;100026.31;;;12.84;64.43
50852;BME280;43953;45.508;-122.806;2023-01-08T00:33:51;100021.75;;;12.84;64.40
50852;BME280;43953;45.508;-122.806;2023-01-08T00:34:23;100020.81;;;12.79;64.23
50852;BME280;43953;45.508;-122.806;2023-01-08T00:34:54;100015.53;;;12.84;64.14
50852;BME280;43953;45.508;-122.806;2023-01-08T00:35:26;100015.97;;;12.81;64.34
50852;BME280;43953;45.508;-122.806;2023-01-08T00:35:58;100022.78;;;12.83;64.37
50852;BME280;43953;45.508;-122.806;2023-01-08T00:36:30;100019.25;;;12.83;64.10
50852;BME280;43953;45.508;-122.806;2023-01-08T00:37:01;100027.38;;;12.83;64.05
50852;BME280;43953;45.508;-122.806;2023-01-08T00:37:33;100023.03;;;12.82;64.11
50852;BME280;43953;45.508;-122.806;2023-01-08T00:38:05;100020.56;;;12.80;64.39
50852;BME280;43953;45.508;-122.806;2023-01-08T00:38:37;100019.75;;;12.80;64.08
50852;BME280;43953;45.508;-122.806;2023-01-08T00:39:09;100011.66;;;12.80;64.05
50852;BME280;43953;45.508;-122.806;2023-01-08T00:39:41;100021.38;;;12.81;63.99
50852;BME280;43953;45.508;-122.806;2023-01-08T00:40:12;100010.00;;;12.79;64.17
50852;BME280;43953;45.508;-122.806;2023-01-08T00:40:44;100014.34;;;12.80;64.18
50852;BME280;43953;45.508;-122.806;2023-01-08T00:41:18;100008.13;;;12.79;64.20
50852;BME280;43953;45.508;-122.806;2023-01-08T00:41:50;100010.00;;;12.79;64.30
50852;BME280;43953;45.508;-122.806;2023-01-08T00:42:21;100006.72;;;12.77;63.98
50852;BME280;43953;45.508;-122.806;2023-01-08T00:42:53;99999.69;;;12.75;64.00
50852;BME280;43953;45.508;-122.806;2023-01-08T00:43:25;100009.41;;;12.77;64.35
50852;BME280;43953;45.508;-122.806;2023-01-08T00:43:57;100001.81;;;12.73;64.38
50852;BME280;43953;45.508;-122.806;2023-01-08T00:44:28;100002.63;;;12.74;64.26
50852;BME280;43953;45.508;-122.806;2023-01-08T00:45:00;100004.03;;;12.77;64.30
50852;BME280;43953;45.508;-122.806;2023-01-08T00:45:32;99997.00;;;12.75;64.37
50852;BME280;43953;45.508;-122.806;2023-01-08T00:46:04;100001.31;;;12.77;64.50
50852;BME280;43953;45.508;-122.806;2023-01-08T00:46:36;100002.06;;;12.72;63.82
50852;BME280;43953;45.508;-122.806;2023-01-08T00:47:08;100000.72;;;12.74;64.30
50852;BME280;43953;45.508;-122.806;2023-01-08T00:47:39;99997.00;;;12.75;64.09
50852;BME280;43953;45.508;-122.806;2023-01-08T00:48:11;100007.53;;;12.77;64.15
50852;BME280;43953;45.508;-122.806;2023-01-08T00:48:43;99999.69;;;12.75;64.45
50852;BME280;43953;45.508;-122.806;2023-01-08T00:49:15;99998.63;;;12.77;64.26
50852;BME280;43953;45.508;-122.806;2023-01-08T00:49:46;100002.13;;;12.77;64.08
50852;BME280;43953;45.508;-122.806;2023-01-08T00:50:18;100002.94;;;12.78;64.35
50852;BME280;43953;45.508;-122.806;2023-01-08T00:50:51;100000.25;;;12.78;63.86
50852;BME280;43953;45.508;-122.806;2023-01-08T00:51:23;99994.84;;;12.78;64.05
50852;BME280;43953;45.508;-122.806;2023-01-08T00:51:56;99991.81;;;12.74;63.83
50852;BME280;43953;45.508;-122.806;2023-01-08T00:52:28;99989.94;;;12.74;63.86
50852;BME280;43953;45.508;-122.806;2023-01-08T00:52:59;99988.88;;;12.75;63.68
50852;BME280;43953;45.508;-122.806;2023-01-08T00:53:31;99996.16;;;12.75;63.97
50852;BME280;43953;45.508;-122.806;2023-01-08T00:54:04;99988.06;;;12.75;63.92
50852;BME280;43953;45.508;-122.806;2023-01-08T00:54:35;99996.16;;;12.75;64.36
50852;BME280;43953;45.508;-122.806;2023-01-08T00:55:07;99991.00;;;12.73;64.06
50852;BME280;43953;45.508;-122.806;2023-01-08T00:55:39;99991.00;;;12.73;64.06
50852;BME280;43953;45.508;-122.806;2023-01-08T00:56:11;99997.00;;;12.75;63.88
50852;BME280;43953;45.508;-122.806;2023-01-08T00:56:42;99987.81;;;12.77;63.88
50852;BME280;43953;45.508;-122.806;2023-01-08T00:57:14;99993.22;;;12.77;63.67
50852;BME280;43953;45.508;-122.806;2023-01-08T00:57:46;99997.00;;;12.75;63.93
50852;BME280;43953;45.508;-122.806;2023-01-08T00:58:18;99996.16;;;12.75;64.15
50852;BME280;43953;45.508;-122.806;2023-01-08T00:58:49;99992.41;;;12.76;64.19
50852;BME280;43953;45.508;-122.806;2023-01-08T00:59:21;99989.69;;;12.76;63.78
50852;BME280;43953;45.508;-122.806;2023-01-08T00:59:53;99991.59;;;12.75;63.86
50852;BME280;43953;45.508;-122.806;2023-01-08T01:00:24;99985.38;;;12.75;63.76
50852;BME280;43953;45.508;-122.806;2023-01-08T01:00:56;99991.59;;;12.75;63.86
50852;BME280;43953;45.508;-122.806;2023-01-08T01:01:28;99978.44;;;12.67;63.71
50852;BME280;43953;45.508;-122.806;2023-01-08T01:02:00;99995.31;;;12.74;63.58
50852;BME280;43953;45.508;-122.806;2023-01-08T01:02:33;99991.59;;;12.75;63.57
50852;BME280;43953;45.508;-122.806;2023-01-08T01:03:05;99995.31;;;12.74;63.72
50852;BME280;43953;45.508;-122.806;2023-01-08T01:03:37;99996.41;;;12.73;64.02
50852;BME280;43953;45.508;-122.806;2023-01-08T01:04:08;99999.09;;;12.73;63.65
50852;BME280;43953;45.508;-122.806;2023-01-08T01:04:40;99993.69;;;12.73;63.38
50852;BME280;43953;45.508;-122.806;2023-01-08T01:05:13;100001.81;;;12.73;63.76
50852;BME280;43953;45.508;-122.806;2023-01-08T01:05:48;99994.78;;;12.72;63.08
50852;BME280;43953;45.508;-122.806;2023-01-08T01:06:20;99995.00;;;12.71;63.62
50852;BME280;43953;45.508;-122.806;2023-01-08T01:06:52;100002.88;;;12.72;63.36
50852;BME280;43953;45.508;-122.806;2023-01-08T01:07:23;100001.22;;;12.71;63.56
50852;BME280;43953;45.508;-122.806;2023-01-08T01:07:56;100003.09;;;12.71;63.84
50852;BME280;43953;45.508;-122.806;2023-01-08T01:08:27;99997.69;;;12.71;63.26
50852;BME280;43953;45.508;-122.806;2023-01-08T01:08:59;100002.06;;;12.72;63.65
50852;BME280;43953;45.508;-122.806;2023-01-08T01:09:31;99995.81;;;12.71;63.54
50852;BME280;43953;45.508;-122.806;2023-01-08T01:10:03;99988.19;;;12.68;63.25
50852;BME280;43953;45.508;-122.806;2023-01-08T01:10:37;99993.38;;;12.70;63.47
50852;BME280;43953;45.508;-122.806;2023-01-08T01:11:17;99994.66;;;12.67;63.45
50852;BME280;43953;45.508;-122.806;2023-01-08T01:11:49;99993.84;;;12.67;63.20
50852;BME280;43953;45.508;-122.806;2023-01-08T01:12:20;99993.84;;;12.67;63.32
50852;BME280;43953;45.508;-122.806;2023-01-08T01:12:52;99990.34;;;12.66;63.70
50852;BME280;43953;45.508;-122.806;2023-01-08T01:13:24;99993.03;;;12.66;63.33
50852;BME280;43953;45.508;-122.806;2023-01-08T01:13:56;99987.84;;;12.65;63.55
50852;BME280;43953;45.508;-122.806;2023-01-08T01:14:27;99989.75;;;12.64;63.64
50852;BME280;43953;45.508;-122.806;2023-01-08T01:14:59;99994.56;;;12.62;63.29
50852;BME280;43953;45.508;-122.806;2023-01-08T01:15:31;99997.25;;;12.62;63.45
50852;BME280;43953;45.508;-122.806;2023-01-08T01:16:03;99992.44;;;12.64;63.52
50852;BME280;43953;45.508;-122.806;2023-01-08T01:16:35;99993.50;;;12.63;63.54
50852;BME280;43953;45.508;-122.806;2023-01-08T01:17:08;99995.97;;;12.65;63.73
50852;BME280;43953;45.508;-122.806;2023-01-08T01:17:42;99991.63;;;12.64;63.55
50852;BME280;43953;45.508;-122.806;2023-01-08T01:18:14;99991.63;;;12.64;63.50
50852;BME280;43953;45.508;-122.806;2023-01-08T01:18:46;99986.22;;;12.64;63.79
50852;BME280;43953;45.508;-122.806;2023-01-08T01:19:17;99995.63;;;12.61;63.86
50852;BME280;43953;45.508;-122.806;2023-01-08T01:19:49;99995.97;;;12.65;63.73
50852;BME280;43953;45.508;-122.806;2023-01-08T01:20:21;99992.44;;;12.64;63.55
50852;BME280;43953;45.508;-122.806;2023-01-08T01:20:53;99993.03;;;12.66;63.56
50852;BME280;43953;45.508;-122.806;2023-01-08T01:21:30;99993.50;;;12.63;63.30
50852;BME280;43953;45.508;-122.806;2023-01-08T01:22:02;99999.72;;;12.64;63.40
50852;BME280;43953;45.508;-122.806;2023-01-08T01:22:34;100000.78;;;12.63;63.18
50852;BME280;43953;45.508;-122.806;2023-01-08T01:23:06;99997.25;;;12.62;63.31
50852;BME280;43953;45.508;-122.806;2023-01-08T01:23:38;99995.63;;;12.61;63.46
50852;BME280;43953;45.508;-122.806;2023-01-08T01:24:11;99993.16;;;12.60;63.58
50852;BME280;43953;45.508;-122.806;2023-01-08T01:24:43;99997.72;;;12.59;63.64
50852;BME280;43953;45.508;-122.806;2023-01-08T01:25:15;99995.84;;;12.60;63.68
50852;BME280;43953;45.508;-122.806;2023-01-08T01:25:46;99990.69;;;12.58;63.51
50852;BME280;43953;45.508;-122.806;2023-01-08T01:26:19;99996.91;;;12.59;63.55
50852;BME280;43953;45.508;-122.806;2023-01-08T01:26:51;99996.91;;;12.59;63.60
50852;BME280;43953;45.508;-122.806;2023-01-08T01:27:24;99995.28;;;12.58;63.42
50852;BME280;43953;45.508;-122.806;2023-01-08T01:27:56;99996.31;;;12.57;63.75
50852;BME280;43953;45.508;-122.806;2023-01-08T01:28:28;99992.81;;;12.56;63.56
50852;BME280;43953;45.508;-122.806;2023-01-08T01:29:00;99991.19;;;12.55;63.57
50852;BME280;43953;45.508;-122.806;2023-01-08T01:29:31;99993.06;;;12.55;63.73
50852;BME280;43953;45.508;-122.806;2023-01-08T01:30:03;99993.28;;;12.53;63.63
50852;BME280;43953;45.508;-122.806;2023-01-08T01:30:35;99996.25;;;12.51;63.50
50852;BME280;43953;45.508;-122.806;2023-01-08T01:31:10;99990.59;;;12.53;63.44
50852;BME280;43953;45.508;-122.806;2023-01-08T01:31:43;99994.59;;;12.50;63.56
50852;BME280;43953;45.508;-122.806;2023-01-08T01:32:15;99986.75;;;12.49;63.91
50852;BME280;43953;45.508;-122.806;2023-01-08T01:32:46;99994.84;;;12.49;63.76
50852;BME280;43953;45.508;-122.806;2023-01-08T01:33:18;99990.84;;;12.51;63.77
50852;BME280;43953;45.508;-122.806;2023-01-08T01:33:50;99990.00;;;12.51;63.86
50852;BME280;43953;45.508;-122.806;2023-01-08T01:34:22;99990.00;;;12.51;63.78
50852;BME280;43953;45.508;-122.806;2023-01-08T01:34:53;99989.44;;;12.49;63.81
50852;BME280;43953;45.508;-122.806;2023-01-08T01:35:25;99978.78;;;12.42;63.67
50852;BME280;43953;45.508;-122.806;2023-01-08T01:36:01;99990.47;;;12.48;63.51
50852;BME280;43953;45.508;-122.806;2023-01-08T01:36:33;99985.56;;;12.45;63.78
50852;BME280;43953;45.508;-122.806;2023-01-08T01:37:04;99992.84;;;12.44;63.67
50852;BME280;43953;45.508;-122.806;2023-01-08T01:37:37;99991.22;;;12.43;63.74
50852;BME280;43953;45.508;-122.806;2023-01-08T01:38:09;99987.69;;;12.43;63.84
50852;BME280;43953;45.508;-122.806;2023-01-08T01:38:45;99995.22;;;12.41;63.71
50852;BME280;43953;45.508;-122.806;2023-01-08T01:39:17;99985.47;;;12.40;63.69
50852;BME280;43953;45.508;-122.806;2023-01-08T01:39:50;99988.19;;;12.40;63.95
50852;BME280;43953;45.508;-122.806;2023-01-08T01:40:21;99979.72;;;12.36;64.01
50852;BME280;43953;45.508;-122.806;2023-01-08T01:40:53;99981.38;;;12.37;64.21
50852;BME280;43953;45.508;-122.806;2023-01-08T01:41:35;99975.38;;;12.35;64.07
50852;BME280;43953;45.508;-122.806;2023-01-08T01:42:18;99983.25;;;12.37;63.77
50852;BME280;43953;45.508;-122.806;2023-01-08T01:43:12;99984.88;;;12.38;63.92
50852;BME280;43953;45.508;-122.806;2023-01-08T01:43:44;99986.78;;;12.37;63.47
50852;BME280;43953;45.508;-122.806;2023-01-08T01:45:16;99979.97;;;12.35;63.14
50852;BME280;43953;45.508;-122.806;2023-01-08T01:45:49;99974.56;;;12.35;63.41
50852;BME280;43953;45.508;-122.806;2023-01-08T01:46:39;99975.03;;;12.32;63.31
50852;BME280;43953;45.508;-122.806;2023-01-08T01:48:14;99970.34;;;12.27;63.67
50852;BME280;43953;45.508;-122.806;2023-01-08T01:48:49;99960.41;;;12.27;63.78
50852;BME280;43953;45.508;-122.806;2023-01-08T01:49:22;99963.91;;;12.28;63.51
50852;BME280;43953;45.508;-122.806;2023-01-08T01:50:09;99972.22;;;12.26;63.58
50852;BME280;43953;45.508;-122.806;2023-01-08T01:50:47;99965.19;;;12.25;63.73
50852;BME280;43953;45.508;-122.806;2023-01-08T01:51:19;99959.81;;;12.25;63.12
50852;BME280;43953;45.508;-122.806;2023-01-08T01:51:55;99963.53;;;12.24;63.58
50852;BME280;43953;45.508;-122.806;2023-01-08T01:52:35;99953.81;;;12.23;63.52
50852;BME280;43953;45.508;-122.806;2023-01-08T01:53:18;99958.16;;;12.24;63.31
50852;BME280;43953;45.508;-122.806;2023-01-08T01:53:52;99959.22;;;12.23;63.41
50852;BME280;43953;45.508;-122.806;2023-01-08T01:54:24;99953.22;;;12.21;63.27
50852;BME280;43953;45.508;-122.806;2023-01-08T01:54:56;99951.59;;;12.20;63.61
50852;BME280;43953;45.508;-122.806;2023-01-08T01:55:30;99953.22;;;12.21;63.44
50852;BME280;43953;45.508;-122.806;2023-01-08T01:56:03;99948.66;;;12.22;63.61
50852;BME280;43953;45.508;-122.806;2023-01-08T01:56:36;99939.50;;;12.23;63.27
50852;BME280;43953;45.508;-122.806;2023-01-08T01:57:08;99943.84;;;12.24;63.07
50852;BME280;43953;45.508;-122.806;2023-01-08T01:57:48;99937.88;;;12.22;63.19
50852;BME280;43953;45.508;-122.806;2023-01-08T01:58:26;99946.31;;;12.25;63.00
50852;BME280;43953;45.508;-122.806;2023-01-08T01:58:59;99945.25;;;12.26;63.23
50852;BME280;43953;45.508;-122.806;2023-01-08T01:59:31;99946.66;;;12.29;62.63
50852;BME280;43953;45.508;-122.806;2023-01-08T02:00:05;99941.84;;;12.31;62.95
50852;BME280;43953;45.508;-122.806;2023-01-08T02:00:38;99944.28;;;12.33;62.51
50852;BME280;43953;45.508;-122.806;2023-01-08T02:01:10;99942.66;;;12.32;62.69
50852;BME280;43953;45.508;-122.806;2023-01-08T02:01:42;99949.69;;;12.33;62.75
50852;BME280;43953;45.508;-122.806;2023-01-08T02:02:14;99946.41;;;12.31;62.98
50852;BME280;43953;45.508;-122.806;2023-01-08T02:02:45;99944.19;;;12.27;62.38
50852;BME280;43953;45.508;-122.806;2023-01-08T02:03:21;99939.03;;;12.26;62.44
50852;BME280;43953;45.508;-122.806;2023-01-08T02:03:53;99934.91;;;12.23;62.89
50852;BME280;43953;45.508;-122.806;2023-01-08T02:04:24;99933.28;;;12.22;62.94
50852;BME280;43953;45.508;-122.806;2023-01-08T02:04:57;99927.09;;;12.22;62.75
50852;BME280;43953;45.508;-122.806;2023-01-08T02:05:37;99930.00;;;12.20;62.20
50852;BME280;43953;45.508;-122.806;2023-01-08T02:06:51;99930.25;;;12.19;62.83
50852;BME280;43953;45.508;-122.806;2023-01-08T02:07:44;99923.47;;;12.16;62.65
50852;BME280;43953;45.508;-122.806;2023-01-08T02:08:49;99923.94;;;12.13;62.59
50852;BME280;43953;45.508;-122.806;2023-01-08T02:10:56;99918.75;;;12.12;62.23
50852;BME280;43953;45.508;-122.806;2023-01-08T02:11:49;99911.97;;;12.09;61.86
50852;BME280;43953;45.508;-122.806;2023-01-08T02:12:54;99919.00;;;12.10;62.57
50852;BME280;43953;45.508;-122.806;2023-01-08T02:13:32;99907.63;;;12.08;62.32
50852;BME280;43953;45.508;-122.806;2023-01-08T02:14:31;99913.63;;;12.10;62.31
50852;BME280;43953;45.508;-122.806;2023-01-08T02:15:23;99910.91;;;12.10;61.96
50852;BME280;43953;45.508;-122.806;2023-01-08T02:16:08;99904.94;;;12.08;62.37
50852;BME280;43953;45.508;-122.806;2023-01-08T02:16:47;99902.47;;;12.06;62.44
50852;BME280;43953;45.508;-122.806;2023-01-08T02:18:26;99904.25;;;12.01;62.44
50852;BME280;43953;45.508;-122.806;2023-01-08T02:19:07;99895.56;;;11.99;62.68
50852;BME280;43953;45.508;-122.806;2023-01-08T02:19:57;99899.69;;;12.01;62.35
50852;BME280;43953;45.508;-122.806;2023-01-08T02:21:10;99888.06;;;12.01;62.06
50852;BME280;43953;45.508;-122.806;2023-01-08T02:21:52;99894.28;;;12.01;62.09
50852;BME280;43953;45.508;-122.806;2023-01-08T02:23:33;99887.22;;;12.00;61.49
50852;BME280;43953;45.508;-122.806;2023-01-08T02:24:16;99883.13;;;11.98;61.93
50852;BME280;43953;45.508;-122.806;2023-01-08T02:25:01;99879.88;;;11.96;61.83
50852;BME280;43953;45.508;-122.806;2023-01-08T02:26:40;99883.03;;;11.93;62.30
50852;BME280;43953;45.508;-122.806;2023-01-08T02:27:13;99880.56;;;11.91;61.87
50852;BME280;43953;45.508;-122.806;2023-01-08T02:27:48;99875.41;;;11.90;61.81
50852;BME280;43953;45.508;-122.806;2023-01-08T02:28:22;99876.47;;;11.89;61.79
50852;BME280;43953;45.508;-122.806;2023-01-08T02:29:19;99874.47;;;11.84;61.97
50852;BME280;43953;45.508;-122.806;2023-01-08T02:29:53;99870.34;;;11.81;62.40
50852;BME280;43953;45.508;-122.806;2023-01-08T02:30:25;99865.19;;;11.80;62.04
50852;BME280;43953;45.508;-122.806;2023-01-08T02:30:57;99871.44;;;11.80;62.48
50852;BME280;43953;45.508;-122.806;2023-01-08T02:31:31;99865.19;;;11.80;62.07
50852;BME280;43953;45.508;-122.806;2023-01-08T02:32:03;99863.91;;;11.82;62.35
50852;BME280;43953;45.508;-122.806;2023-01-08T02:32:37;99863.06;;;11.82;61.91
50852;BME280;43953;45.508;-122.806;2023-01-08T02:33:10;99857.09;;;11.80;62.01
50852;BME280;43953;45.508;-122.806;2023-01-08T02:33:42;99858.97;;;11.79;62.44
50852;BME280;43953;45.508;-122.806;2023-01-08T02:34:14;99858.75;;;11.81;62.33
50852;BME280;43953;45.508;-122.806;2023-01-08T02:34:46;99860.63;;;11.80;62.24
50852;BME280;43953;45.508;-122.806;2023-01-08T02:35:17;99859.78;;;11.80;61.88
50852;BME280;43953;45.508;-122.806;2023-01-08T02:36:51;99852.66;;;11.74;62.17
50852;BME280;43953;45.508;-122.806;2023-01-08T02:37:24;99848.59;;;11.71;62.54
50852;BME280;43953;45.508;-122.806;2023-01-08T02:37:56;99851.28;;;11.71;62.23
50852;BME280;43953;45.508;-122.806;2023-01-08T02:38:28;99842.59;;;11.69;62.35
50852;BME280;43953;45.508;-122.806;2023-01-08T02:40:17;99844.94;;;11.66;61.83
50852;BME280;43953;45.508;-122.806;2023-01-08T02:41:03;99845.19;;;11.64;62.08
50852;BME280;43953;45.508;-122.806;2023-01-08T02:43:25;99847.88;;;11.64;62.16
50852;BME280;43953;45.508;-122.806;2023-01-08T02:44:01;99841.41;;;11.65;61.77
50852;BME280;43953;45.508;-122.806;2023-01-08T02:45:20;99832.28;;;11.66;61.81
50852;BME280;43953;45.508;-122.806;2023-01-08T02:46:00;99832.75;;;11.63;61.77
50852;BME280;43953;45.508;-122.806;2023-01-08T02:46:34;99838.97;;;11.64;62.03
50852;BME280;43953;45.508;-122.806;2023-01-08T02:47:11;99832.16;;;11.61;61.86
50852;BME280;43953;45.508;-122.806;2023-01-08T02:47:49;99834.88;;;11.61;61.86
50852;BME280;43953;45.508;-122.806;2023-01-08T02:48:37;99839.44;;;11.60;61.89
50852;BME280;43953;45.508;-122.806;2023-01-08T02:49:12;99832.66;;;11.58;62.05
50852;BME280;43953;45.508;-122.806;2023-01-08T02:49:49;99823.16;;;11.55;61.75
50852;BME280;43953;45.508;-122.806;2023-01-08T02:51:01;99823.88;;;11.51;61.75
50852;BME280;43953;45.508;-122.806;2023-01-08T02:51:41;99829.75;;;11.48;61.95
50852;BME280;43953;45.508;-122.806;2023-01-08T02:52:14;99825.38;;;11.47;61.94
50852;BME280;43953;45.508;-122.806;2023-01-08T02:52:54;99822.69;;;11.47;61.85
50852;BME280;43953;45.508;-122.806;2023-01-08T02:53:42;99818.03;;;11.42;62.31
50852;BME280;43953;45.508;-122.806;2023-01-08T02:54:21;99815.34;;;11.42;61.92
50852;BME280;43953;45.508;-122.806;2023-01-08T02:54:55;99824.22;;;11.43;62.02
50852;BME280;43953;45.508;-122.806;2023-01-08T02:55:29;99816.63;;;11.39;61.96
50852;BME280;43953;45.508;-122.806;2023-01-08T02:56:13;99814.97;;;11.38;62.44
50852;BME280;43953;45.508;-122.806;2023-01-08T02:56:51;99817.09;;;11.36;62.25
50852;BME280;43953;45.508;-122.806;2023-01-08T02:57:24;99816.84;;;11.38;62.47
50852;BME280;43953;45.508;-122.806;2023-01-08T02:57:57;99813.34;;;11.37;62.56
50852;BME280;43953;45.508;-122.806;2023-01-08T02:58:31;99815.44;;;11.35;62.26
50852;BME280;43953;45.508;-122.806;2023-01-08T02:59:06;99813.00;;;11.34;62.17
50852;BME280;43953;45.508;-122.806;2023-01-08T02:59:40;99811.34;;;11.33;62.19
50852;BME280;43953;45.508;-122.806;2023-01-08T03:00:14;99814.06;;;11.33;62.12
50852;BME280;43953;45.508;-122.806;2023-01-08T03:00:46;99817.78;;;11.32;62.34
50852;BME280;43953;45.508;-122.806;2023-01-08T03:01:20;99805.59;;;11.29;61.95
50852;BME280;43953;45.508;-122.806;2023-01-08T03:01:53;99806.06;;;11.26;62.14
50852;BME280;43953;45.508;-122.806;2023-01-08T03:02:30;99804.19;;;11.27;62.63
50852;BME280;43953;45.508;-122.806;2023-01-08T03:03:16;99819.53;;;11.26;62.58
50852;BME280;43953;45.508;-122.806;2023-01-08T03:03:52;99808.19;;;11.24;62.67
50852;BME280;43953;45.508;-122.806;2023-01-08T03:04:25;99808.19;;;11.24;62.35
50852;BME280;43953;45.508;-122.806;2023-01-08T03:05:05;99813.13;;;11.27;62.16
50852;BME280;43953;45.508;-122.806;2023-01-08T03:05:41;99806.66;;;11.28;62.15
50852;BME280;43953;45.508;-122.806;2023-01-08T03:06:16;99806.66;;;11.28;62.03
50852;BME280;43953;45.508;-122.806;2023-01-08T03:06:49;99801.28;;;11.28;61.98